Time;durP1;ratioP1;P1;durP2;ratioP2;P2;SDS_P1;SDS_P2;PMS_P1;PMS_P2;Temp;Humidity;BMP_temperature;BMP_pressure;BME280_temperature;BME280_humidity;BME280_pressure;Samples;Min_cycle;Max_cycle;Signal;HPM_P1;HPM_P2
2022/09/10 00:02:00;;;;;;;15.35;11.53;;;;;;;12.49;91.52;100373.93;1711289;83;25671;-68
2022/09/10 00:04:27;;;;;;;15.05;10.43;;;;;;;12.49;91.68;100375.29;1727608;82;25543;-68
2022/09/10 00:06:54;;;;;;;14.20;10.25;;;;;;;12.45;91.56;100358.06;1711303;83;28005;-68
2022/09/10 00:09:20;;;;;;;15.58;10.48;;;;;;;12.44;91.67;100360.53;1711277;83;25482;-68
2022/09/10 00:11:46;;;;;;;12.40;9.03;;;;;;;12.42;91.69;100356.77;1719252;82;25542;-68
2022/09/10 00:14:18;;;;;;;12.47;8.68;;;;;;;12.40;91.55;100354.16;1719420;82;25662;-68
2022/09/10 00:16:45;;;;;;;13.32;8.88;;;;;;;12.39;91.58;100349.27;1727661;82;25610;-68
2022/09/10 00:19:13;;;;;;;12.68;8.88;;;;;;;12.39;91.67;100349.84;1711386;83;28271;-67
2022/09/10 00:21:40;;;;;;;13.53;9.08;;;;;;;12.39;91.74;100346.56;1711514;83;25485;-67
2022/09/10 00:24:07;;;;;;;12.65;9.58;;;;;;;12.37;91.67;100337.16;1723299;82;25636;-68
2022/09/10 00:26:39;;;;;;;11.63;9.63;;;;;;;12.39;91.80;100338.42;1715268;82;25613;-68
2022/09/10 00:29:11;;;;;;;12.20;9.20;;;;;;;12.40;91.81;100332.45;1711570;83;25417;-68
2022/09/10 00:31:38;;;;;;;14.47;9.28;;;;;;;12.41;91.83;100331.32;1711528;83;27348;-68
2022/09/10 00:34:07;;;;;;;11.60;8.85;;;;;;;12.43;91.92;100324.47;1711436;83;25403;-68
2022/09/10 00:36:39;;;;;;;15.00;9.15;;;;;;;12.43;91.90;100327.19;1706368;83;25603;-68
2022/09/10 00:39:10;;;;;;;11.97;8.78;;;;;;;12.43;91.81;100323.66;1717406;83;25619;-68
2022/09/10 00:41:39;;;;;;;12.82;8.60;;;;;;;12.44;91.93;100318.48;1705173;84;25644;-67
2022/09/10 00:44:46;;;;;;;10.88;9.35;;;;;;;12.47;91.99;100317.84;1705227;84;27469;-68
2022/09/10 00:47:37;;;;;;;11.63;8.95;;;;;;;12.49;91.93;100321.03;1564815;90;27278;-68
2022/09/10 00:50:20;;;;;;;11.85;8.68;;;;;;;12.50;91.95;100322.64;1462879;97;25517;-67
2022/09/10 00:52:50;;;;;;;12.95;8.85;;;;;;;12.53;91.92;100313.83;1461217;97;25651;-67
2022/09/10 00:55:19;;;;;;;12.88;9.43;;;;;;;12.51;91.65;100313.36;1452099;97;25520;-67
2022/09/10 00:57:50;;;;;;;13.68;9.60;;;;;;;12.48;91.59;100308.57;1461321;96;27605;-67
2022/09/10 01:00:17;;;;;;;12.70;9.13;;;;;;;12.48;91.56;100314.00;1469635;96;25727;-67
2022/09/10 01:02:43;;;;;;;14.18;10.53;;;;;;;12.48;91.68;100314.00;1461264;98;25674;-68
2022/09/10 01:05:11;;;;;;;13.45;9.98;;;;;;;12.49;91.74;100308.25;1469618;97;27801;-68
2022/09/10 01:07:38;;;;;;;13.80;10.15;;;;;;;12.49;91.66;100306.11;1463395;97;25724;-68
2022/09/10 01:10:10;;;;;;;14.07;10.30;;;;;;;12.49;91.58;100306.11;1469791;96;27414;-68
2022/09/10 01:12:48;;;;;;;13.58;10.40;;;;;;;12.51;91.76;100307.94;1469417;97;25910;-68
2022/09/10 01:15:39;;;;;;;14.38;10.50;;;;;;;12.50;91.61;100306.36;1469221;96;25623;-68
2022/09/10 01:18:17;;;;;;;15.20;10.18;;;;;;;12.48;91.61;100307.22;1469559;97;25790;-67
2022/09/10 01:21:00;;;;;;;15.35;10.18;;;;;;;12.49;91.81;100302.04;1469705;96;25765;-67
2022/09/10 01:24:21;;;;;;;15.40;11.33;;;;;;;12.49;91.74;100304.75;1494414;93;29666;-66
2022/09/10 01:27:34;;;;;;;11.85;9.03;;;;;;;12.48;91.77;100297.18;1600950;86;25810;-68
2022/09/10 01:30:23;;;;;;;17.17;10.38;;;;;;;12.45;91.51;100291.61;1631440;87;25720;-67
2022/09/10 01:33:08;;;;;;;;;;;;;;;12.41;91.52;100290.09;1639239;86;27760;-66
2022/09/10 01:35:45;;;;;;;11.80;8.90;;;;;;;12.42;91.76;100284.10;1635738;87;25677;-67
2022/09/10 01:38:26;;;;;;;12.95;9.25;;;;;;;12.39;91.78;100273.32;1623976;87;27420;-68
2022/09/10 01:40:54;;;;;;;13.05;8.83;;;;;;;12.38;91.53;100283.13;1613308;87;25432;-67
2022/09/10 01:43:21;;;;;;;12.03;9.05;;;;;;;12.36;91.64;100285.38;1632002;87;25632;-66
2022/09/10 01:46:18;;;;;;;14.87;9.23;;;;;;;12.35;91.50;100287.87;1631979;87;25759;-65
2022/09/10 01:48:59;;;;;;;12.98;9.03;;;;;;;12.34;91.57;100288.41;1594230;88;25518;-66
2022/09/10 01:51:40;;;;;;;11.48;8.50;;;;;;;12.35;91.80;100285.16;1564959;91;27442;-66
2022/09/10 01:54:32;;;;;;;12.05;9.10;;;;;;;12.35;91.78;100281.09;1567353;90;25789;-68
2022/09/10 01:57:49;;;;;;;11.48;8.58;;;;;;;12.33;91.68;100274.05;1565884;91;25739;-66
2022/09/10 02:00:17;;;;;;;10.32;8.05;;;;;;;12.31;91.64;100272.23;1589296;88;26307;-65
2022/09/10 02:02:56;;;;;;;11.28;8.58;;;;;;;12.30;91.60;100268.48;1649289;85;25819;-66
2022/09/10 02:05:23;;;;;;;12.73;8.88;;;;;;;12.28;91.55;100269.37;1664726;85;27367;-65
2022/09/10 02:07:55;;;;;;;11.40;8.68;;;;;;;12.26;91.60;100266.97;1661996;85;25863;-65
2022/09/10 02:10:22;;;;;;;14.70;9.13;;;;;;;12.25;91.55;100264.58;1674550;84;25709;-65
2022/09/10 02:12:49;;;;;;;15.20;10.08;;;;;;;12.22;91.57;100262.50;1619406;87;27752;-65
2022/09/10 02:15:17;;;;;;;12.00;9.10;;;;;;;12.21;91.78;100263.07;1647468;85;25856;-65
2022/09/10 02:17:46;;;;;;;10.90;8.45;;;;;;;12.21;91.77;100256.83;1646025;85;27499;-66
2022/09/10 02:20:13;;;;;;;11.93;9.33;;;;;;;12.19;91.70;100257.17;1669848;84;25744;-65
2022/09/10 02:22:45;;;;;;;13.08;8.88;;;;;;;12.22;92.04;100257.08;1622617;87;25690;-65
2022/09/10 02:25:11;;;;;;;14.18;9.30;;;;;;;12.22;91.95;100253.80;1655339;85;25636;-66
2022/09/10 02:27:37;;;;;;;12.50;9.25;;;;;;;12.23;91.93;100257.33;1677968;84;25607;-65
2022/09/10 02:30:06;;;;;;;12.45;8.58;;;;;;;12.24;92.08;100247.52;1680292;84;28070;-66
2022/09/10 02:32:32;;;;;;;14.25;9.40;;;;;;;12.26;92.25;100245.27;1676682;84;29990;-66
2022/09/10 02:34:58;;;;;;;13.13;8.60;;;;;;;12.29;92.15;100243.82;1677421;84;25484;-65
2022/09/10 02:37:24;;;;;;;13.35;8.88;;;;;;;12.28;92.07;100236.25;1672963;85;35365;-65
2022/09/10 02:39:50;;;;;;;11.73;8.45;;;;;;;12.32;91.96;100237.76;1673206;84;25656;-67
2022/09/10 02:42:17;;;;;;;12.70;8.88;;;;;;;12.32;91.85;100232.34;1674446;84;27356;-67
2022/09/10 02:44:44;;;;;;;12.93;8.43;;;;;;;12.31;91.85;100236.97;1675152;85;25420;-67
2022/09/10 02:47:10;;;;;;;14.15;8.63;;;;;;;12.31;91.88;100236.97;1673381;84;25725;-65
2022/09/10 02:49:36;;;;;;;15.23;9.60;;;;;;;12.33;91.99;100233.94;1669868;84;26278;-65
2022/09/10 02:52:03;;;;;;;13.28;8.25;;;;;;;12.34;92.02;100228.73;1669831;84;25617;-65
2022/09/10 02:54:30;;;;;;;11.63;9.25;;;;;;;12.32;91.72;100235.05;1669843;84;28175;-65
2022/09/10 02:56:56;;;;;;;11.20;8.78;;;;;;;12.30;91.72;100240.80;1669774;84;27098;-66
2022/09/10 02:59:23;;;;;;;11.05;8.30;;;;;;;12.33;91.77;100235.30;1669839;84;25704;-66
2022/09/10 03:01:50;;;;;;;9.03;8.00;;;;;;;12.31;91.49;100232.12;1669797;85;25783;-66
2022/09/10 03:04:17;;;;;;;12.05;8.28;;;;;;;12.29;91.47;100235.69;1669903;84;25434;-66
2022/09/10 03:06:45;;;;;;;8.00;7.15;;;;;;;12.23;91.15;100235.63;1678970;84;27409;-66
2022/09/10 03:09:12;;;;;;;8.53;6.75;;;;;;;12.22;91.23;100239.45;1677869;84;25651;-66
2022/09/10 03:11:39;;;;;;;8.73;7.25;;;;;;;12.18;91.27;100235.23;1669834;84;29664;-66
2022/09/10 03:14:08;;;;;;;11.78;7.58;;;;;;;12.19;91.42;100235.48;1669751;84;25647;-66
2022/09/10 03:16:35;;;;;;;12.05;8.15;;;;;;;12.19;91.35;100240.09;1670030;84;25506;-66
2022/09/10 03:19:01;;;;;;;12.23;8.05;;;;;;;12.15;91.47;100237.22;1669793;84;27020;-66
2022/09/10 03:21:28;;;;;;;10.15;8.65;;;;;;;12.12;91.38;100230.55;1669722;84;25673;-66
2022/09/10 03:23:54;;;;;;;11.85;8.05;;;;;;;12.14;91.64;100227.52;1669794;84;25575;-66
2022/09/10 03:26:24;;;;;;;10.48;7.80;;;;;;;12.13;91.74;100219.13;1669754;84;25616;-66
2022/09/10 03:28:50;;;;;;;8.28;7.42;;;;;;;12.14;91.86;100219.38;1669996;84;25667;-66
2022/09/10 03:31:17;;;;;;;11.38;8.15;;;;;;;12.18;91.92;100220.32;1669887;84;27412;-66
2022/09/10 03:33:45;;;;;;;9.78;8.65;;;;;;;12.20;92.04;100216.72;1648233;85;25833;-66
2022/09/10 03:36:17;;;;;;;8.58;7.40;;;;;;;12.21;92.12;100218.33;1669875;84;25753;-66
2022/09/10 03:38:40;;;;;;;10.75;8.15;;;;;;;12.23;92.01;100219.36;1668503;84;25651;-66
2022/09/10 03:41:07;;;;;;;10.25;7.50;;;;;;;12.22;91.83;100223.18;1669831;84;25497;-66
2022/09/10 03:43:33;;;;;;;8.05;6.92;;;;;;;12.19;91.74;100224.64;1669821;84;27963;-66
2022/09/10 03:45:59;;;;;;;8.98;7.17;;;;;;;12.19;91.62;100238.73;1669658;84;25654;-66
2022/09/10 03:48:25;;;;;;;10.28;7.20;;;;;;;12.16;91.73;100240.19;1677532;83;25412;-66
2022/09/10 03:50:51;;;;;;;8.60;7.00;;;;;;;12.13;91.83;100235.40;1681010;83;25617;-66
2022/09/10 03:53:18;;;;;;;9.55;7.20;;;;;;;12.10;91.63;100233.32;1681089;83;25589;-65
2022/09/10 03:55:47;;;;;;;9.30;7.42;;;;;;;12.08;91.80;100232.84;1681373;84;27355;-65
2022/09/10 03:58:16;;;;;;;8.93;7.87;;;;;;;12.07;91.86;100239.38;1689259;83;33156;-65
2022/09/10 04:00:45;;;;;;;8.90;7.25;;;;;;;12.07;92.02;100236.67;1698649;83;25476;-65
2022/09/10 04:03:11;;;;;;;8.63;7.17;;;;;;;12.06;91.97;100236.45;1685209;84;25642;-65
2022/09/10 04:05:42;;;;;;;9.95;7.55;;;;;;;12.08;92.17;100233.64;1695392;83;25418;-65
2022/09/10 04:08:09;;;;;;;8.98;7.20;;;;;;;12.10;92.19;100232.75;1681991;83;27425;-65
2022/09/10 04:10:36;;;;;;;8.78;6.95;;;;;;;12.09;92.09;100240.67;1692982;83;25583;-65
2022/09/10 04:13:02;;;;;;;11.70;8.30;;;;;;;12.10;92.05;100238.74;1692939;82;25680;-65
2022/09/10 04:15:28;;;;;;;12.60;7.95;;;;;;;12.10;92.20;100246.31;1690032;83;25625;-65
2022/09/10 04:17:55;;;;;;;11.65;7.95;;;;;;;12.10;92.21;100242.24;1696593;83;25560;-65
2022/09/10 04:20:23;;;;;;;9.18;7.37;;;;;;;12.13;92.24;100243.53;1685224;84;28208;-66
2022/09/10 04:22:50;;;;;;;10.60;7.30;;;;;;;12.15;92.29;100244.79;1697858;83;25604;-66
2022/09/10 04:25:18;;;;;;;10.45;7.58;;;;;;;12.14;92.11;100237.00;1680373;84;25488;-65
2022/09/10 04:27:46;;;;;;;10.88;8.23;;;;;;;12.16;92.26;100237.47;1691354;83;25737;-65
2022/09/10 04:30:13;;;;;;;11.75;8.50;;;;;;;12.17;92.20;100223.34;1690977;83;25737;-66
2022/09/10 04:32:39;;;;;;;9.53;7.80;;;;;;;12.18;92.18;100222.24;1692701;83;27395;-65
2022/09/10 04:35:08;;;;;;;11.05;8.30;;;;;;;12.19;92.25;100212.44;1685619;83;25659;-66
2022/09/10 04:37:34;;;;;;;11.08;8.48;;;;;;;12.22;92.38;100214.48;1689935;83;25631;-66
2022/09/10 04:40:02;;;;;;;12.10;8.65;;;;;;;12.24;92.34;100214.16;1680469;85;26338;-66
2022/09/10 04:42:30;;;;;;;12.80;8.80;;;;;;;12.25;92.39;100207.06;1697767;84;25670;-66
2022/09/10 04:44:57;;;;;;;10.90;8.65;;;;;;;12.24;92.23;100206.84;1707598;83;27394;-66
2022/09/10 04:47:24;;;;;;;9.95;8.13;;;;;;;12.26;92.26;100207.84;1708600;83;25729;-67
2022/09/10 04:49:50;;;;;;;13.38;8.60;;;;;;;12.28;92.35;100202.36;1681585;84;25774;-67
2022/09/10 04:52:16;;;;;;;11.65;8.10;;;;;;;12.30;92.35;100194.69;1700924;83;25699;-67
2022/09/10 04:54:43;;;;;;;10.88;8.40;;;;;;;12.32;92.43;100176.17;1698781;83;25643;-67
2022/09/10 04:57:09;;;;;;;10.30;7.78;;;;;;;12.33;92.29;100164.78;1681820;84;27350;-67
2022/09/10 04:59:37;;;;;;;11.85;9.08;;;;;;;12.33;92.25;100169.64;1682368;84;25419;-67
2022/09/10 05:02:05;;;;;;;10.10;8.18;;;;;;;12.32;91.95;100181.59;1682870;84;25454;-67
2022/09/10 05:04:32;;;;;;;11.45;8.60;;;;;;;12.32;91.85;100188.38;1684924;84;27780;-67
2022/09/10 05:06:58;;;;;;;11.48;8.88;;;;;;;12.32;91.90;100206.57;1681298;84;25485;-67
2022/09/10 05:09:24;;;;;;;13.00;9.10;;;;;;;12.32;91.93;100215.49;1686580;84;29716;-66
2022/09/10 05:11:50;;;;;;;12.03;8.85;;;;;;;12.29;91.64;100210.74;1683025;84;33113;-68
2022/09/10 05:14:16;;;;;;;11.93;9.25;;;;;;;12.28;91.76;100198.28;1685677;84;29657;-67
2022/09/10 05:16:43;;;;;;;13.85;9.15;;;;;;;12.29;92.01;100187.69;1677953;84;25653;-67
2022/09/10 05:19:16;;;;;;;14.98;9.80;;;;;;;12.32;92.17;100173.45;1684054;84;25587;-67
2022/09/10 05:21:37;;;;;;;14.20;10.05;;;;;;;12.34;92.36;100151.44;1683479;84;27433;-67
2022/09/10 05:24:05;;;;;;;15.78;10.58;;;;;;;12.39;92.60;100168.11;1681662;84;33177;-67
2022/09/10 05:26:31;;;;;;;11.70;8.83;;;;;;;12.39;92.60;100168.11;1687275;84;25684;-67
2022/09/10 05:28:58;;;;;;;10.85;8.98;;;;;;;12.37;91.90;100175.78;1677346;84;35210;-66
2022/09/10 05:31:26;;;;;;;13.70;9.88;;;;;;;12.33;91.76;100175.06;1682912;84;25498;-65
2022/09/10 05:33:58;;;;;;;12.93;9.80;;;;;;;12.32;91.68;100172.10;1681710;84;27391;-65
2022/09/10 05:36:24;;;;;;;13.03;9.63;;;;;;;12.31;91.81;100177.31;1682126;84;25650;-67
2022/09/10 05:38:50;;;;;;;15.60;10.00;;;;;;;12.32;91.89;100172.67;1678173;84;29614;-66
2022/09/10 05:41:16;;;;;;;14.78;10.38;;;;;;;12.32;91.84;100182.16;1678394;84;35250;-66
2022/09/10 05:43:43;;;;;;;13.28;9.95;;;;;;;12.29;91.78;100187.69;1678476;84;25486;-66
2022/09/10 05:46:09;;;;;;;13.70;10.28;;;;;;;12.27;91.82;100187.19;1678449;85;27305;-65
2022/09/10 05:48:36;;;;;;;12.80;9.25;;;;;;;12.26;91.67;100180.73;1674367;84;33137;-66
2022/09/10 05:51:02;;;;;;;13.80;8.78;;;;;;;12.26;91.83;100180.73;1669856;84;25587;-65
2022/09/10 05:53:29;;;;;;;13.80;8.98;;;;;;;12.24;91.82;100172.95;1669883;84;26353;-66
2022/09/10 05:55:55;;;;;;;13.43;9.90;;;;;;;12.25;91.96;100175.09;1669849;84;25669;-66
2022/09/10 05:58:22;;;;;;;15.25;10.38;;;;;;;12.27;92.08;100170.13;1669795;84;27371;-65
2022/09/10 06:00:50;;;;;;;18.35;12.13;;;;;;;12.29;92.11;100166.53;1669578;84;27212;-66
2022/09/10 06:03:18;;;;;;;15.40;11.15;;;;;;;12.31;92.19;100170.53;1669898;84;25469;-65
2022/09/10 06:05:52;;;;;;;14.68;10.80;;;;;;;12.33;92.21;100161.50;1669645;84;25779;-66
2022/09/10 06:08:20;;;;;;;14.10;10.35;;;;;;;12.33;91.96;100154.72;1669614;84;25683;-66
2022/09/10 06:10:59;;;;;;;13.62;9.38;;;;;;;12.37;91.99;100148.09;1669883;84;27578;-66
2022/09/10 06:13:26;;;;;;;11.63;9.50;;;;;;;12.41;92.00;100150.41;1652914;84;25604;-65
2022/09/10 06:15:53;;;;;;;12.50;10.40;;;;;;;12.40;91.65;100144.73;1671350;84;25579;-67
2022/09/10 06:18:19;;;;;;;13.90;9.55;;;;;;;12.41;91.57;100145.52;1671264;84;25387;-66
2022/09/10 06:20:47;;;;;;;12.50;9.80;;;;;;;12.42;91.65;100147.91;1669824;84;25648;-66
2022/09/10 06:23:17;;;;;;;13.75;10.15;;;;;;;12.43;91.51;100144.63;1671044;84;28016;-66
2022/09/10 06:25:43;;;;;;;14.23;10.58;;;;;;;12.45;91.73;100151.33;1641576;86;25665;-65
2022/09/10 06:28:13;;;;;;;16.12;9.63;;;;;;;12.48;91.63;100147.16;1648097;85;25719;-65
2022/09/10 06:30:39;;;;;;;15.05;10.48;;;;;;;12.46;91.16;100148.05;1670303;84;27814;-65
2022/09/10 06:33:05;;;;;;;13.45;9.75;;;;;;;12.45;91.41;100139.70;1669483;84;25745;-65
2022/09/10 06:35:32;;;;;;;14.90;11.73;;;;;;;12.45;91.29;100139.70;1669334;84;27380;-66
2022/09/10 06:37:58;;;;;;;15.88;10.90;;;;;;;12.45;91.18;100145.13;1669537;84;26381;-67
2022/09/10 06:40:26;;;;;;;16.35;11.03;;;;;;;12.45;91.23;100141.05;1669566;84;30156;-66
2022/09/10 06:42:53;;;;;;;12.25;9.93;;;;;;;12.47;91.41;100140.16;1675170;84;25617;-67
2022/09/10 06:45:19;;;;;;;14.98;9.45;;;;;;;12.48;91.27;100134.41;1691316;84;25417;-67
2022/09/10 06:47:46;;;;;;;12.53;10.15;;;;;;;12.53;91.48;100129.34;1683741;84;27988;-66
2022/09/10 06:50:12;;;;;;;13.03;9.15;;;;;;;12.54;91.38;100133.66;1676297;84;25600;-67
2022/09/10 06:52:38;;;;;;;13.95;10.38;;;;;;;12.55;91.15;100136.63;1682886;84;25757;-67
2022/09/10 06:55:06;;;;;;;13.05;9.43;;;;;;;12.55;91.01;100130.38;1687121;84;25686;-66
2022/09/10 06:57:32;;;;;;;17.27;10.85;;;;;;;12.55;90.94;100131.73;1685093;84;25415;-66
2022/09/10 06:59:58;;;;;;;13.90;10.15;;;;;;;12.57;91.00;100126.80;1680856;84;27345;-67
2022/09/10 07:02:24;;;;;;;14.35;9.68;;;;;;;12.58;90.95;100125.66;1683681;84;25768;-67
2022/09/10 07:04:50;;;;;;;12.28;9.18;;;;;;;12.59;90.84;100131.34;1667173;84;25731;-67
2022/09/10 07:07:17;;;;;;;13.25;9.40;;;;;;;12.59;90.86;100136.19;1667553;84;25670;-67
2022/09/10 07:09:44;;;;;;;13.13;9.23;;;;;;;12.59;90.84;100136.19;1664951;86;25690;-66
2022/09/10 07:12:10;;;;;;;13.15;10.10;;;;;;;12.55;90.74;100128.48;1663534;85;28774;-66
2022/09/10 07:14:37;;;;;;;13.05;9.55;;;;;;;12.62;91.07;100132.05;1664738;85;25423;-67
2022/09/10 07:17:03;;;;;;;13.72;8.80;;;;;;;12.66;91.27;100132.97;1657433;84;25696;-68
2022/09/10 07:19:30;;;;;;;13.08;9.48;;;;;;;12.67;91.08;100136.72;1663758;86;25821;-67
2022/09/10 07:21:57;;;;;;;14.13;9.30;;;;;;;12.71;91.23;100139.00;1665747;84;25437;-67
2022/09/10 07:24:23;;;;;;;12.58;9.35;;;;;;;12.75;91.02;100133.72;1684397;84;27420;-64
2022/09/10 07:26:50;;;;;;;12.55;9.13;;;;;;;12.79;91.16;100140.66;1664214;84;33295;-64
2022/09/10 07:29:17;;;;;;;14.58;9.00;;;;;;;12.84;91.24;100141.84;1664657;86;25784;-65
2022/09/10 07:31:44;;;;;;;12.82;9.75;;;;;;;12.87;90.94;100141.97;1668537;84;25744;-63
2022/09/10 07:34:10;;;;;;;11.48;8.75;;;;;;;12.88;90.64;100150.33;1668555;84;25705;-64
2022/09/10 07:36:36;;;;;;;12.45;9.38;;;;;;;12.89;90.45;100144.36;1682091;84;29563;-67
2022/09/10 07:39:03;;;;;;;14.23;9.68;;;;;;;12.93;90.64;100141.21;1669234;84;33395;-66
2022/09/10 07:41:34;;;;;;;14.90;11.12;;;;;;;12.96;90.40;100137.84;1666720;86;25881;-66
2022/09/10 07:44:02;;;;;;;12.20;9.65;;;;;;;12.97;90.28;100142.14;1660688;86;25667;-65
2022/09/10 07:46:28;;;;;;;15.58;8.83;;;;;;;13.00;90.22;100144.77;1665699;86;25447;-72
2022/09/10 07:48:58;;;;;;;10.48;8.98;;;;;;;13.05;90.21;100144.58;1668378;84;27183;-75
2022/09/10 07:51:28;;;;;;;11.83;8.83;;;;;;;13.06;89.99;100146.97;1674238;84;25690;-74
2022/09/10 07:53:57;;;;;;;12.47;9.23;;;;;;;13.05;89.42;100144.58;1693197;84;25797;-75
2022/09/10 07:56:24;;;;;;;12.75;9.00;;;;;;;12.99;89.34;100144.52;1676099;84;25705;-75
2022/09/10 07:58:52;;;;;;;11.10;8.60;;;;;;;12.96;89.40;100150.06;1671436;84;25776;-75
2022/09/10 08:01:19;;;;;;;11.25;7.55;;;;;;;12.97;89.67;100150.85;1675567;84;27310;-71
2022/09/10 08:03:45;;;;;;;11.88;8.43;;;;;;;12.95;89.81;100151.75;1669735;84;25724;-73
2022/09/10 08:06:12;;;;;;;10.72;9.05;;;;;;;12.95;89.70;100151.17;1677288;84;25770;-73
2022/09/10 08:08:39;;;;;;;13.10;9.68;;;;;;;12.91;89.41;100154.33;1678450;84;25691;-75
2022/09/10 08:11:12;;;;;;;14.43;9.28;;;;;;;12.91;89.35;100156.25;1677577;84;26333;-72
2022/09/10 08:13:46;;;;;;;13.95;9.93;;;;;;;12.88;89.61;100153.62;1679140;84;27340;-74
2022/09/10 08:16:19;;;;;;;14.00;9.43;;;;;;;12.86;89.70;100159.37;1672172;84;25746;-74
2022/09/10 08:18:48;;;;;;;13.03;9.98;;;;;;;12.83;89.65;100157.30;1677255;84;25744;-76
2022/09/10 08:21:16;;;;;;;12.37;9.68;;;;;;;12.82;89.80;100158.98;1664692;84;25719;-75
2022/09/10 08:23:49;;;;;;;12.47;9.25;;;;;;;12.82;90.05;100163.05;1669342;85;25701;-74
2022/09/10 08:26:16;;;;;;;13.43;8.73;;;;;;;12.82;90.20;100161.70;1669812;85;27432;-73
2022/09/10 08:28:46;;;;;;;13.80;8.20;;;;;;;12.84;90.15;100171.69;1671533;84;25769;-73
2022/09/10 08:31:13;;;;;;;10.05;7.50;;;;;;;12.84;90.17;100162.19;1688962;84;25494;-72
2022/09/10 08:33:39;;;;;;;12.03;7.90;;;;;;;12.84;90.29;100164.91;1682559;84;26178;-74
2022/09/10 08:36:09;;;;;;;9.98;7.58;;;;;;;12.84;90.27;100160.27;1673044;84;25767;-74
2022/09/10 08:38:41;;;;;;;15.13;8.15;;;;;;;12.86;90.48;100157.23;1640800;87;27421;-72
2022/09/10 08:41:34;;;;;;;10.38;8.75;;;;;;;12.88;90.41;100160.41;1662898;85;25856;-74
2022/09/10 08:44:26;;;;;;;11.35;8.98;;;;;;;12.92;90.67;100164.05;1678297;84;25626;-71
2022/09/10 08:47:04;;;;;;;13.78;8.45;;;;;;;12.93;90.46;100157.50;1670936;84;26338;-71
2022/09/10 08:49:57;;;;;;;11.48;8.98;;;;;;;12.95;90.51;100159.89;1647993;85;26364;-71
2022/09/10 08:52:50;;;;;;;12.75;10.13;;;;;;;12.96;90.36;100154.70;1666916;85;27423;-71
2022/09/10 08:55:21;;;;;;;11.05;9.53;;;;;;;12.94;90.28;100149.60;1652439;85;25411;-71
2022/09/10 08:58:10;;;;;;;14.13;9.80;;;;;;;12.98;90.55;100151.09;1672792;85;25478;-71
2022/09/10 09:00:39;;;;;;;12.37;9.80;;;;;;;13.00;90.69;100148.27;1653840;86;25887;-71
2022/09/10 09:03:23;;;;;;;15.00;10.05;;;;;;;13.02;90.61;100144.66;1707628;83;26435;-72
2022/09/10 09:05:59;;;;;;;11.35;9.20;;;;;;;13.05;90.54;100144.58;1708637;83;27453;-70
2022/09/10 09:08:33;;;;;;;11.63;9.15;;;;;;;13.08;90.59;100150.72;1635383;86;25683;-71
2022/09/10 09:11:36;;;;;;;10.03;8.10;;;;;;;13.05;90.39;100146.72;1652392;86;26356;-72
2022/09/10 09:14:26;;;;;;;10.05;7.80;;;;;;;13.08;90.38;100150.72;1681689;85;25784;-72
2022/09/10 09:17:01;;;;;;;11.22;8.50;;;;;;;13.06;90.34;100152.40;1645580;85;25704;-71
2022/09/10 09:19:33;;;;;;;13.00;7.42;;;;;;;13.07;90.45;100161.33;1708379;83;27719;-72
2022/09/10 09:22:27;;;;;;;11.80;8.13;;;;;;;13.07;90.34;100164.83;1708650;83;25963;-72
2022/09/10 09:25:00;;;;;;;12.58;8.50;;;;;;;13.06;90.45;100161.91;1707630;83;25774;-73
2022/09/10 09:27:33;;;;;;;11.30;8.48;;;;;;;13.02;89.89;100156.88;1652847;86;25841;-72
2022/09/10 09:30:08;;;;;;;11.33;8.18;;;;;;;12.98;89.71;100148.38;1652621;86;25824;-72
2022/09/10 09:32:39;;;;;;;12.03;7.83;;;;;;;12.93;89.96;100146.64;1651965;86;28128;-72
2022/09/10 09:35:35;;;;;;;10.38;8.20;;;;;;;12.93;90.50;100148.57;1681589;85;25814;-72
2022/09/10 09:38:24;;;;;;;9.65;7.75;;;;;;;12.93;90.30;100154.78;1680840;85;26397;-73
2022/09/10 09:40:56;;;;;;;11.80;7.60;;;;;;;12.93;90.34;100153.43;1655864;85;26268;-67
2022/09/10 09:43:49;;;;;;;10.32;8.03;;;;;;;12.93;90.29;100149.93;1668670;85;25705;-68
2022/09/10 09:46:19;;;;;;;11.15;7.60;;;;;;;12.95;90.45;100151.17;1646089;84;27405;-63
2022/09/10 09:48:47;;;;;;;13.05;7.80;;;;;;;12.98;90.66;100147.02;1654895;84;25682;-63
2022/09/10 09:51:20;;;;;;;10.35;7.60;;;;;;;13.02;90.51;100134.38;1703158;83;25652;-63
2022/09/10 09:53:49;;;;;;;9.40;7.05;;;;;;;13.07;90.58;100133.61;1669966;84;25709;-65
2022/09/10 09:56:27;;;;;;;12.15;8.75;;;;;;;13.13;90.51;100141.56;1649523;85;25681;-65
2022/09/10 09:58:53;;;;;;;10.78;7.50;;;;;;;13.14;90.09;100145.30;1666992;84;28451;-65
2022/09/10 10:01:22;;;;;;;12.47;7.55;;;;;;;13.18;90.25;100142.75;1690768;84;25616;-66
2022/09/10 10:04:01;;;;;;;14.65;7.05;;;;;;;13.22;90.15;100139.03;1693870;84;25408;-66
2022/09/10 10:06:33;;;;;;;9.43;7.28;;;;;;;13.27;90.29;100133.97;1692777;84;32560;-67
2022/09/10 10:09:19;;;;;;;9.10;6.75;;;;;;;13.28;89.67;100130.14;1680160;84;25732;-66
2022/09/10 10:12:03;;;;;;;9.20;6.62;;;;;;;13.27;89.09;100130.69;1693702;84;27355;-67
2022/09/10 10:14:40;;;;;;;9.88;7.10;;;;;;;13.28;89.01;100119.28;1692180;84;25631;-67
2022/09/10 10:17:34;;;;;;;9.93;6.97;;;;;;;13.30;88.87;100129.23;1693337;84;25748;-67
2022/09/10 10:20:08;;;;;;;10.00;7.22;;;;;;;13.30;88.87;100132.50;1692641;84;26316;-65
2022/09/10 10:22:38;;;;;;;12.25;8.00;;;;;;;13.27;88.73;100137.47;1680784;84;25759;-66
2022/09/10 10:25:28;;;;;;;10.60;7.47;;;;;;;13.32;89.06;100136.52;1666166;85;27986;-64
2022/09/10 10:27:55;;;;;;;10.60;7.33;;;;;;;13.37;89.30;100124.09;1677128;84;25636;-65
2022/09/10 10:30:24;;;;;;;8.88;6.97;;;;;;;13.42;89.00;100121.18;1686577;84;25947;-67
2022/09/10 10:33:00;;;;;;;10.50;7.23;;;;;;;13.48;89.01;100118.26;1684479;84;25780;-68
2022/09/10 10:35:50;;;;;;;13.35;7.53;;;;;;;13.52;88.86;100112.38;1672505;84;25456;-67
2022/09/10 10:38:30;;;;;;;10.25;8.30;;;;;;;13.55;88.84;100113.89;1679395;84;27545;-67
2022/09/10 10:41:15;;;;;;;11.35;7.60;;;;;;;13.60;88.79;100100.64;1669543;84;25718;-67
2022/09/10 10:44:01;;;;;;;9.50;7.10;;;;;;;13.64;88.77;100094.22;1669055;84;25732;-70
2022/09/10 10:47:07;;;;;;;9.93;7.22;;;;;;;13.68;88.33;100093.55;1643268;85;25702;-68
2022/09/10 10:50:08;;;;;;;9.68;7.22;;;;;;;13.71;87.87;100095.03;1645719;85;25651;-68
2022/09/10 10:53:05;;;;;;;10.82;7.60;;;;;;;13.70;87.62;100096.15;1651181;85;27351;-68
2022/09/10 10:55:44;;;;;;;10.08;7.17;;;;;;;13.72;87.87;100085.73;1651357;85;25588;-67
2022/09/10 10:58:35;;;;;;;9.40;7.40;;;;;;;13.77;88.04;100085.55;1651175;85;25527;-67
2022/09/10 11:01:19;;;;;;;12.15;7.60;;;;;;;13.82;88.52;100094.85;1650728;85;26250;-66
2022/09/10 11:04:22;;;;;;;9.98;7.75;;;;;;;13.86;87.78;100101.77;1651693;85;25845;-66
2022/09/10 11:06:57;;;;;;;10.03;7.50;;;;;;;13.86;87.22;100097.69;1635608;85;28466;-68
2022/09/10 11:09:43;;;;;;;10.82;7.62;;;;;;;13.86;87.04;100094.16;1651093;85;25599;-67
2022/09/10 11:12:32;;;;;;;10.72;8.05;;;;;;;13.86;87.25;100090.08;1649827;85;25717;-69
2022/09/10 11:15:51;;;;;;;11.48;8.10;;;;;;;13.89;87.15;100079.89;1593266;89;26485;-69
2022/09/10 11:18:48;;;;;;;11.55;8.75;;;;;;;13.90;87.02;100071.98;1662506;84;25727;-68
2022/09/10 11:21:48;;;;;;;13.62;8.95;;;;;;;13.93;87.00;100071.31;1620261;86;28272;-68
2022/09/10 11:24:40;;;;;;;14.07;9.08;;;;;;;13.93;86.89;100073.46;1674575;84;25595;-67
2022/09/10 11:27:17;;;;;;;11.18;8.10;;;;;;;13.93;86.86;100076.75;1667062;84;25435;-67
2022/09/10 11:29:52;;;;;;;12.10;8.48;;;;;;;13.97;87.19;100074.94;1666964;84;26149;-67
2022/09/10 11:32:37;;;;;;;13.93;9.15;;;;;;;13.99;87.39;100069.38;1666995;84;25724;-68
2022/09/10 11:35:36;;;;;;;13.20;9.03;;;;;;;14.05;87.48;100076.77;1665393;84;27199;-68
2022/09/10 11:38:25;;;;;;;13.53;9.35;;;;;;;14.09;87.36;100077.67;1526048;93;25826;-69
2022/09/10 11:41:08;;;;;;;16.30;9.55;;;;;;;14.14;86.89;100072.02;1576582;90;29755;-69
2022/09/10 11:43:43;;;;;;;16.32;9.38;;;;;;;14.15;86.70;100061.95;1552686;92;25706;-68